createdAt,value
2022-12-17T00:02:20.515Z,-2.82
2022-12-17T00:05:05.624Z,-2.91
2022-12-17T00:07:52.034Z,-2.88
2022-12-17T00:10:37.210Z,-2.86
2022-12-17T00:13:22.638Z,-2.92
2022-12-17T00:16:09.836Z,-2.92
2022-12-17T00:18:55.360Z,-2.81
2022-12-17T00:21:41.732Z,-2.73
2022-12-17T00:24:28.296Z,-2.81
2022-12-17T00:27:13.626Z,-2.79
2022-12-17T00:29:55.286Z,-2.78
2022-12-17T00:32:40.870Z,-2.77
2022-12-17T00:35:26.603Z,-2.77
2022-12-17T00:38:11.960Z,-2.73
2022-12-17T00:40:58.720Z,-2.69
2022-12-17T00:43:43.938Z,-2.64
2022-12-17T00:46:29.378Z,-2.63
2022-12-17T00:49:14.652Z,-2.63
2022-12-17T00:52:00.034Z,-2.64
2022-12-17T00:54:45.178Z,-2.59
2022-12-17T00:57:40.180Z,-2.57
2022-12-17T01:00:27.086Z,-2.70
2022-12-17T01:03:12.540Z,-2.70
2022-12-17T01:05:57.971Z,-2.73
2022-12-17T01:08:43.367Z,-2.85
2022-12-17T01:11:43.068Z,-2.83
2022-12-17T01:14:29.630Z,-2.75
2022-12-17T01:17:14.778Z,-2.82
2022-12-17T01:20:00.119Z,-2.96
2022-12-17T01:22:45.381Z,-3.06
2022-12-17T01:25:30.789Z,-3.00
2022-12-17T01:28:15.977Z,-3.07
2022-12-17T01:31:02.718Z,-3.09
2022-12-17T01:33:48.009Z,-3.05
2022-12-17T01:36:33.329Z,-2.99
2022-12-17T01:39:18.697Z,-2.95
2022-12-17T01:42:03.631Z,-2.88
2022-12-17T01:45:12.667Z,-2.91
2022-12-17T01:48:02.213Z,-3.16
2022-12-17T01:50:49.912Z,-3.15
2022-12-17T01:53:38.319Z,-3.09
2022-12-17T01:56:25.464Z,-3.05
2022-12-17T01:59:11.343Z,-3.18
2022-12-17T02:01:56.948Z,-3.14
2022-12-17T02:04:44.009Z,-3.06
2022-12-17T02:07:39.346Z,-3.08
2022-12-17T02:10:34.873Z,-3.13
2022-12-17T02:13:26.788Z,-3.09
2022-12-17T02:16:13.890Z,-3.09
2022-12-17T02:19:02.795Z,-3.09
2022-12-17T02:21:50.029Z,-3.22
2022-12-17T02:24:41.895Z,-3.40
2022-12-17T02:27:28.925Z,-3.40
2022-12-17T02:30:16.730Z,-3.41
2022-12-17T02:33:03.401Z,-3.40
2022-12-17T02:35:51.826Z,-3.39
2022-12-17T02:38:39.201Z,-3.39
2022-12-17T02:41:24.773Z,-3.44
2022-12-17T02:44:12.007Z,-3.47
2022-12-17T02:46:57.758Z,-3.50
2022-12-17T02:49:43.075Z,-3.55
2022-12-17T02:52:34.564Z,-3.64
2022-12-17T02:55:20.333Z,-3.79
2022-12-17T02:58:05.319Z,-3.75
2022-12-17T03:00:51.855Z,-3.73
2022-12-17T03:03:50.416Z,-3.76
2022-12-17T03:06:35.971Z,-3.92
2022-12-17T03:09:21.359Z,-3.88
2022-12-17T03:12:06.600Z,-3.80
2022-12-17T03:14:51.964Z,-3.79
2022-12-17T03:17:38.347Z,-3.84
2022-12-17T03:20:24.242Z,-3.83
2022-12-17T03:23:09.459Z,-3.83
2022-12-17T03:25:54.677Z,-3.75
2022-12-17T03:28:40.098Z,-3.87
2022-12-17T03:31:25.299Z,-3.93
2022-12-17T03:34:12.327Z,-3.85
2022-12-17T03:36:57.682Z,-3.74
2022-12-17T03:39:42.831Z,-3.74
2022-12-17T03:42:28.203Z,-3.75
2022-12-17T03:45:13.197Z,-3.78
2022-12-17T03:47:58.634Z,-3.77
2022-12-17T03:50:45.512Z,-3.79
2022-12-17T03:53:30.647Z,-3.83
2022-12-17T03:56:15.909Z,-3.78
2022-12-17T03:59:01.270Z,-3.65
2022-12-17T04:01:46.766Z,-3.62
2022-12-17T04:04:32.166Z,-3.65
2022-12-17T04:07:18.791Z,-3.67
2022-12-17T04:10:04.060Z,-3.69
2022-12-17T04:12:57.691Z,-3.75
2022-12-17T04:15:43.040Z,-3.74
2022-12-17T04:18:28.314Z,-3.70
2022-12-17T04:21:13.576Z,-3.70
2022-12-17T04:24:00.134Z,-3.67
2022-12-17T04:26:45.436Z,-3.64
2022-12-17T04:29:30.811Z,-3.65
2022-12-17T04:32:31.121Z,-3.62
2022-12-17T04:35:30.324Z,-3.65
2022-12-17T04:38:15.469Z,-3.69
2022-12-17T04:41:01.923Z,-3.71
2022-12-17T04:43:47.149Z,-3.65
2022-12-17T04:46:32.627Z,-3.65
2022-12-17T04:49:17.563Z,-3.85
2022-12-17T04:52:02.680Z,-4.12
2022-12-17T04:54:47.687Z,-4.22
2022-12-17T04:57:34.355Z,-4.14
2022-12-17T05:00:19.862Z,-4.13
2022-12-17T05:03:05.044Z,-4.15
2022-12-17T05:05:50.345Z,-4.11
2022-12-17T05:08:41.069Z,-4.05
2022-12-17T05:11:26.942Z,-4.00
2022-12-17T05:14:13.625Z,-3.99
2022-12-17T05:16:59.012Z,-3.97
2022-12-17T05:19:49.343Z,-4.00
2022-12-17T05:22:34.567Z,-4.11
2022-12-17T05:25:19.860Z,-4.23
2022-12-17T05:28:05.099Z,-4.35
2022-12-17T05:30:51.640Z,-4.47
2022-12-17T05:33:37.288Z,-4.55
2022-12-17T05:36:22.733Z,-4.61
2022-12-17T05:39:08.274Z,-4.68
2022-12-17T05:41:53.674Z,-4.65
2022-12-17T05:44:42.657Z,-4.61
2022-12-17T05:47:28.945Z,-4.58
2022-12-17T05:50:14.357Z,-4.69
2022-12-17T05:52:59.782Z,-4.87
2022-12-17T05:55:45.089Z,-5.07
2022-12-17T05:58:30.584Z,-5.11
2022-12-17T06:01:25.169Z,-5.31
2022-12-17T06:04:11.661Z,-5.37
2022-12-17T06:06:56.930Z,-5.47
2022-12-17T06:09:42.276Z,-5.71
2022-12-17T06:12:27.412Z,-5.88
2022-12-17T06:15:18.118Z,-5.99
2022-12-17T06:18:15.079Z,-6.01
2022-12-17T06:21:03.754Z,-6.03
2022-12-17T06:23:49.117Z,-5.98
2022-12-17T06:26:34.402Z,-6.06
2022-12-17T06:29:19.479Z,-6.14
2022-12-17T06:32:04.848Z,-6.28
2022-12-17T06:34:50.055Z,-6.23
2022-12-17T06:37:36.708Z,-6.23
2022-12-17T06:40:22.555Z,-6.21
2022-12-17T06:43:11.864Z,-6.30
2022-12-17T06:45:57.115Z,-6.32
2022-12-17T06:48:42.590Z,-6.30
2022-12-17T06:51:27.550Z,-6.25
2022-12-17T06:54:13.960Z,-6.25
2022-12-17T06:56:59.313Z,-6.25
2022-12-17T06:59:56.312Z,-6.26
2022-12-17T07:02:41.476Z,-6.34
2022-12-17T07:05:26.806Z,-6.30
2022-12-17T07:08:15.744Z,-6.32
2022-12-17T07:11:02.151Z,-6.32
2022-12-17T07:13:47.426Z,-6.35
2022-12-17T07:16:32.985Z,-6.50
2022-12-17T07:19:21.393Z,-6.56
2022-12-17T07:22:09.239Z,-6.55
2022-12-17T07:24:54.917Z,-6.48
2022-12-17T07:27:41.859Z,-6.44
2022-12-17T07:30:27.776Z,-6.42
2022-12-17T07:33:17.347Z,-6.36
2022-12-17T07:36:02.714Z,-6.27
2022-12-17T07:38:47.852Z,-6.20
2022-12-17T07:41:32.907Z,-6.20
2022-12-17T07:44:19.237Z,-6.22
2022-12-17T07:47:04.641Z,-6.19
2022-12-17T07:49:50.117Z,-6.11
2022-12-17T07:52:35.097Z,-6.09
2022-12-17T07:55:20.432Z,-5.99
2022-12-17T07:58:05.753Z,-5.99
2022-12-17T08:00:52.318Z,-5.97
2022-12-17T08:03:38.468Z,-5.82
2022-12-17T08:06:24.399Z,-5.73
2022-12-17T08:09:09.825Z,-5.61
2022-12-17T08:11:54.952Z,-5.51
2022-12-17T08:14:40.082Z,-5.47
2022-12-17T08:17:26.781Z,-5.38
2022-12-17T08:20:12.243Z,-5.38
2022-12-17T08:22:57.288Z,-5.36
2022-12-17T08:25:42.619Z,-5.33
2022-12-17T08:28:49.465Z,-5.19
2022-12-17T08:31:33.284Z,-5.08
2022-12-17T08:34:20.016Z,-5.02
2022-12-17T08:37:05.533Z,-4.96
2022-12-17T08:39:50.531Z,-4.96
2022-12-17T08:42:35.803Z,-4.83
2022-12-17T08:45:21.042Z,-4.69
2022-12-17T08:48:06.250Z,-4.59
2022-12-17T08:50:52.875Z,-4.42
2022-12-17T08:53:38.322Z,-4.27
2022-12-17T08:56:24.939Z,-4.23
2022-12-17T08:59:09.953Z,-4.13
2022-12-17T09:01:55.319Z,-4.07
2022-12-17T09:04:40.489Z,-4.00
2022-12-17T09:07:26.964Z,-3.93
2022-12-17T09:10:12.274Z,-3.79
2022-12-17T09:13:02.674Z,-3.72
2022-12-17T09:15:49.734Z,-3.69
2022-12-17T09:18:37.424Z,-3.62
2022-12-17T09:21:22.896Z,-3.68
2022-12-17T09:24:09.754Z,-3.69
2022-12-17T09:26:54.803Z,-3.64
2022-12-17T09:29:39.798Z,-3.48
2022-12-17T09:32:25.227Z,-3.36
2022-12-17T09:35:10.287Z,-3.13
2022-12-17T09:37:55.620Z,-3.04
2022-12-17T09:40:43.291Z,-3.11
2022-12-17T09:43:40.557Z,-3.04
2022-12-17T09:46:31.007Z,-2.92
2022-12-17T09:49:20.630Z,-3.21
2022-12-17T09:52:05.699Z,-3.17
2022-12-17T09:54:57.717Z,-3.36
2022-12-17T09:57:51.170Z,-3.46
2022-12-17T10:00:39.087Z,-3.41
2022-12-17T10:03:29.534Z,-3.41
2022-12-17T10:06:22.261Z,-3.40
2022-12-17T10:09:11.587Z,-3.45
2022-12-17T10:11:56.681Z,-3.26
2022-12-17T10:14:44.685Z,-3.11
2022-12-17T10:17:33.156Z,-2.92
2022-12-17T10:20:18.639Z,-2.71
2022-12-17T10:23:05.479Z,-2.55
2022-12-17T10:25:50.921Z,-2.47
2022-12-17T10:28:37.769Z,-2.53
2022-12-17T10:31:28.851Z,-2.45
2022-12-17T10:34:15.317Z,-2.46
2022-12-17T10:37:04.331Z,-2.42
2022-12-17T10:39:49.636Z,-2.32
2022-12-17T10:42:42.938Z,-2.36
2022-12-17T10:45:42.541Z,-2.39
2022-12-17T10:48:43.097Z,-2.69
2022-12-17T10:51:38.161Z,-2.83
2022-12-17T10:54:28.343Z,-2.88
2022-12-17T10:57:16.657Z,-2.88
2022-12-17T11:00:02.019Z,-2.82
2022-12-17T11:02:48.966Z,-2.50
2022-12-17T11:05:42.636Z,-2.19
2022-12-17T11:08:28.849Z,-2.09
2022-12-17T11:11:14.266Z,-1.88
2022-12-17T11:13:58.459Z,-1.84
2022-12-17T11:16:45.145Z,-1.61
2022-12-17T11:19:47.826Z,-1.47
2022-12-17T11:22:42.719Z,-1.36
2022-12-17T11:25:41.556Z,-1.27
2022-12-17T11:28:33.721Z,-1.18
2022-12-17T11:31:26.062Z,-0.99
2022-12-17T11:34:11.665Z,-0.93
2022-12-17T11:37:02.778Z,-0.88
2022-12-17T11:39:55.012Z,-1.20
2022-12-17T11:42:44.634Z,-1.14
2022-12-17T11:45:37.435Z,-1.76
2022-12-17T11:48:28.587Z,-1.52
2022-12-17T11:51:13.242Z,-1.76
2022-12-17T11:54:06.320Z,-1.47
2022-12-17T11:56:57.272Z,-1.84
2022-12-17T11:59:50.984Z,-1.74
2022-12-17T12:02:51.984Z,-1.86
2022-12-17T12:05:44.072Z,-1.60
2022-12-17T12:08:36.469Z,-1.40
2022-12-17T12:11:32.582Z,-1.54
2022-12-17T12:14:26.088Z,-1.68
2022-12-17T12:17:16.835Z,-2.12
2022-12-17T12:20:07.196Z,-2.22
2022-12-17T12:22:58.515Z,-2.14
2022-12-17T12:25:51.868Z,-1.98
2022-12-17T12:28:46.761Z,-2.03
2022-12-17T12:31:43.350Z,-2.10
2022-12-17T12:34:32.036Z,-2.08
2022-12-17T12:37:20.179Z,-1.92
2022-12-17T12:40:10.068Z,-2.02
2022-12-17T12:43:02.581Z,-1.88
2022-12-17T12:46:00.320Z,-1.87
2022-12-17T12:48:57.975Z,-1.80
2022-12-17T12:51:46.038Z,-1.75
2022-12-17T12:54:43.783Z,-1.72
2022-12-17T13:16:54.511Z,-1.54
2022-12-17T13:24:11.322Z,-1.52
2022-12-17T13:26:47.676Z,-1.56
2022-12-17T13:29:24.192Z,-1.47
2022-12-17T13:32:17.778Z,-1.51
2022-12-17T13:34:55.754Z,-1.40
2022-12-17T13:37:31.736Z,-1.30
2022-12-17T13:40:05.637Z,-1.33
2022-12-17T13:42:36.013Z,-1.33
2022-12-17T13:45:03.981Z,-1.33
2022-12-17T13:47:34.561Z,-1.44
2022-12-17T13:50:32.936Z,-1.60
2022-12-17T13:52:51.461Z,-2.12
2022-12-17T13:55:21.108Z,-2.21
2022-12-17T13:57:49.927Z,-2.06
2022-12-17T14:00:22.992Z,-1.91
2022-12-17T14:02:52.612Z,-2.06
2022-12-17T14:05:26.628Z,-2.06
2022-12-17T14:07:54.988Z,-1.95
2022-12-17T14:10:22.713Z,-1.90
2022-12-17T14:12:50.134Z,-1.87
2022-12-17T14:15:25.569Z,-2.03
2022-12-17T14:17:55.422Z,-2.08
2022-12-17T14:20:24.657Z,-2.00
2022-12-17T14:22:54.203Z,-1.95
2022-12-17T14:25:23.942Z,-1.95
2022-12-17T14:27:55.288Z,-2.03
2022-12-17T14:30:25.247Z,-2.02
2022-12-17T14:32:54.330Z,-2.06
2022-12-17T14:35:27.058Z,-2.06
2022-12-17T14:37:54.769Z,-2.24
2022-12-17T14:40:23.447Z,-2.23
2022-12-17T14:42:51.357Z,-2.20
2022-12-17T14:45:24.644Z,-2.25
2022-12-17T14:47:57.903Z,-2.30
2022-12-17T14:50:28.950Z,-2.32
2022-12-17T14:52:57.917Z,-2.31
2022-12-17T14:55:36.751Z,-2.29
2022-12-17T14:58:19.099Z,-2.35
2022-12-17T15:00:49.024Z,-2.30
2022-12-17T15:03:26.651Z,-2.33
2022-12-17T15:05:58.241Z,-2.36
2022-12-17T15:08:26.241Z,-2.42
2022-12-17T15:10:54.287Z,-2.49
2022-12-17T15:13:21.993Z,-2.49
2022-12-17T15:15:49.670Z,-2.50
2022-12-17T15:18:17.435Z,-2.55
2022-12-17T15:20:46.480Z,-2.56
2022-12-17T15:23:17.040Z,-2.56
2022-12-17T15:25:47.091Z,-2.54
2022-12-17T15:28:16.987Z,-2.69
2022-12-17T15:30:44.852Z,-2.80
2022-12-17T15:33:13.070Z,-2.85
2022-12-17T15:35:41.282Z,-2.80
2022-12-17T15:38:11.403Z,-2.97
2022-12-17T15:40:39.205Z,-2.88
2022-12-17T15:43:11.635Z,-2.84
2022-12-17T15:45:41.247Z,-2.83
2022-12-17T15:48:09.199Z,-2.95
2022-12-17T15:50:37.111Z,-2.93
2022-12-17T15:53:05.023Z,-2.91
2022-12-17T15:55:34.103Z,-3.00
2022-12-17T15:58:01.847Z,-3.02
2022-12-17T16:00:29.664Z,-2.99
2022-12-17T16:02:57.503Z,-3.02
2022-12-17T16:05:25.573Z,-2.97
2022-12-17T16:07:53.489Z,-2.95
2022-12-17T16:10:21.165Z,-2.91
2022-12-17T16:12:50.309Z,-2.89
2022-12-17T16:15:18.413Z,-2.89
2022-12-17T16:17:46.268Z,-2.86
2022-12-17T16:20:13.984Z,-2.96
2022-12-17T16:22:41.706Z,-3.02
2022-12-17T16:25:10.187Z,-3.00
2022-12-17T16:27:37.996Z,-2.92
2022-12-17T16:30:08.462Z,-2.95
2022-12-17T16:32:36.913Z,-2.86
2022-12-17T16:35:05.891Z,-2.82
2022-12-17T16:37:33.833Z,-2.78
2022-12-17T16:40:01.744Z,-2.84
2022-12-17T16:42:29.481Z,-2.98
2022-12-17T16:44:57.216Z,-3.00
2022-12-17T16:47:27.022Z,-2.96
2022-12-17T16:49:54.846Z,-3.10
2022-12-17T16:52:22.952Z,-3.25
2022-12-17T16:54:51.035Z,-3.34
2022-12-17T16:57:18.838Z,-3.29
2022-12-17T16:59:46.972Z,-3.26
2022-12-17T17:02:16.264Z,-3.37
2022-12-17T17:04:45.494Z,-3.39
2022-12-17T17:07:13.161Z,-3.32
2022-12-17T17:09:40.904Z,-3.30
2022-12-17T17:12:09.174Z,-3.31
2022-12-17T17:14:37.098Z,-3.23
2022-12-17T17:17:05.377Z,-3.28
2022-12-17T17:19:33.289Z,-3.39
2022-12-17T17:22:03.004Z,-3.40
2022-12-17T17:24:31.240Z,-3.40
2022-12-17T17:26:59.438Z,-3.42
2022-12-17T17:29:27.914Z,-3.39
2022-12-17T17:32:13.978Z,-3.34
2022-12-17T17:34:42.808Z,-3.44
2022-12-17T17:37:13.754Z,-3.46
2022-12-17T17:39:42.168Z,-3.44
2022-12-17T17:42:10.302Z,-3.47
2022-12-17T17:44:38.793Z,-3.63
2022-12-17T17:47:07.745Z,-3.71
2022-12-17T17:49:35.890Z,-3.66
2022-12-17T17:52:12.280Z,-3.61
2022-12-17T17:54:42.359Z,-3.63
2022-12-17T17:57:10.910Z,-3.66
2022-12-17T17:59:40.345Z,-3.71
2022-12-17T18:02:09.047Z,-3.70
2022-12-17T18:04:37.381Z,-3.78
2022-12-17T18:09:55.186Z,-3.89
2022-12-17T18:12:41.376Z,-3.86
2022-12-17T18:15:14.733Z,-3.82
2022-12-17T18:17:43.757Z,-3.95
2022-12-17T18:20:12.465Z,-3.92
2022-12-17T18:22:40.394Z,-3.86
2022-12-17T18:25:10.690Z,-3.91
2022-12-17T18:27:38.773Z,-3.92
2022-12-17T18:30:07.681Z,-3.87
2022-12-17T18:32:35.745Z,-3.89
2022-12-17T18:35:03.788Z,-3.90
2022-12-17T18:37:31.863Z,-3.91
2022-12-17T18:39:59.927Z,-3.92
2022-12-17T18:42:47.092Z,-3.89
2022-12-17T18:45:15.044Z,-3.88
2022-12-17T18:47:44.701Z,-3.87
2022-12-17T18:50:13.386Z,-4.18
2022-12-17T18:52:41.319Z,-4.16
2022-12-17T18:55:12.659Z,-4.18
2022-12-17T18:57:42.047Z,-4.16
2022-12-17T19:00:11.554Z,-4.18
2022-12-17T19:02:40.179Z,-4.22
2022-12-17T19:05:09.374Z,-4.22
2022-12-17T19:07:37.319Z,-4.21
2022-12-17T19:10:06.106Z,-4.16
2022-12-17T19:12:33.994Z,-4.15
2022-12-17T19:15:03.364Z,-4.20
2022-12-17T19:17:31.235Z,-4.15
2022-12-17T19:19:59.147Z,-4.13
2022-12-17T19:22:27.250Z,-4.06
2022-12-17T19:25:04.470Z,-4.15
2022-12-17T19:27:32.319Z,-4.14
2022-12-17T19:30:00.083Z,-4.18
2022-12-17T19:32:29.198Z,-4.23
2022-12-17T19:34:56.819Z,-4.21
2022-12-17T19:37:24.563Z,-4.35
2022-12-17T19:39:52.324Z,-4.33
2022-12-17T19:42:25.841Z,-4.26
2022-12-17T19:44:54.874Z,-4.24
2022-12-17T19:47:23.523Z,-4.22
2022-12-17T19:49:52.558Z,-4.26
2022-12-17T19:52:20.284Z,-4.24
2022-12-17T19:54:47.899Z,-4.23
2022-12-17T19:57:15.577Z,-4.21
2022-12-17T19:59:43.246Z,-4.27
2022-12-17T20:02:11.251Z,-4.33
2022-12-17T20:04:39.215Z,-4.35
2022-12-17T20:07:08.261Z,-4.33
2022-12-17T20:09:35.906Z,-4.32
2022-12-17T20:12:03.844Z,-4.32
2022-12-17T20:14:32.630Z,-4.33
2022-12-17T20:17:01.276Z,-4.30
2022-12-17T20:19:31.230Z,-4.28
2022-12-17T20:21:59.993Z,-4.31
2022-12-17T20:24:31.823Z,-4.37
2022-12-17T20:27:00.860Z,-4.35
2022-12-17T20:29:28.875Z,-4.32
2022-12-17T20:31:57.199Z,-4.39
2022-12-17T20:34:25.626Z,-4.44
2022-12-17T20:36:54.116Z,-4.50
2022-12-17T20:39:27.144Z,-4.47
2022-12-17T20:41:57.432Z,-4.47
2022-12-17T20:44:25.252Z,-4.56
2022-12-17T20:46:53.103Z,-4.51
2022-12-17T20:49:20.967Z,-4.52
2022-12-17T20:51:48.666Z,-4.50
2022-12-17T20:54:16.616Z,-4.50
2022-12-17T20:56:44.492Z,-4.49
2022-12-17T20:59:16.660Z,-4.49
2022-12-17T21:01:44.986Z,-4.48
2022-12-17T21:04:13.288Z,-4.48
2022-12-17T21:06:42.363Z,-4.45
2022-12-17T21:09:10.274Z,-4.44
2022-12-17T21:11:39.332Z,-4.47
2022-12-17T21:14:11.942Z,-4.47
2022-12-17T21:16:41.613Z,-4.49
2022-12-17T21:19:10.435Z,-4.53
2022-12-17T21:21:39.006Z,-4.55
2022-12-17T21:24:08.160Z,-4.57
2022-12-17T21:26:37.269Z,-4.64
2022-12-17T21:29:06.353Z,-4.64
2022-12-17T21:31:36.333Z,-4.64
2022-12-17T21:34:06.706Z,-4.70
2022-12-17T21:36:35.200Z,-4.73
2022-12-17T21:39:08.677Z,-4.80
2022-12-17T21:41:38.378Z,-4.86
2022-12-17T21:44:08.586Z,-4.86
2022-12-17T21:46:36.306Z,-4.86
2022-12-17T21:49:05.848Z,-4.89
2022-12-17T21:51:33.716Z,-5.00
2022-12-17T21:54:08.389Z,-4.96
2022-12-17T21:56:36.820Z,-5.01
2022-12-17T21:59:05.080Z,-4.97
2022-12-17T22:01:34.567Z,-5.03
2022-12-17T22:04:05.639Z,-4.98
2022-12-17T22:06:46.758Z,-4.99
2022-12-17T22:09:37.779Z,-5.02
2022-12-17T22:12:27.573Z,-5.14
2022-12-17T22:14:55.227Z,-5.14
2022-12-17T22:17:23.466Z,-5.12
2022-12-17T22:19:52.487Z,-5.07
2022-12-17T22:22:20.144Z,-5.02
2022-12-17T22:24:47.832Z,-5.03
2022-12-17T22:27:16.679Z,-5.00
2022-12-17T22:30:01.788Z,-4.98
2022-12-17T22:32:58.572Z,-4.99
2022-12-17T22:36:30.758Z,-5.03
2022-12-17T22:40:44.822Z,-5.01
2022-12-17T22:44:33.955Z,-5.02
2022-12-17T22:44:44.343Z,-5.00
2022-12-17T22:46:42.259Z,-5.02
2022-12-17T22:49:10.291Z,-4.99
2022-12-17T22:51:40.969Z,-5.02
2022-12-17T22:54:09.744Z,-5.01
2022-12-17T22:57:07.641Z,-5.03
2022-12-17T22:59:26.571Z,-5.15
2022-12-17T23:01:54.326Z,-5.14
2022-12-17T23:04:22.154Z,-5.13
2022-12-17T23:06:51.252Z,-5.16
2022-12-17T23:09:20.197Z,-5.16
2022-12-17T23:11:48.513Z,-5.10
2022-12-17T23:14:17.029Z,-5.09
2022-12-17T23:16:44.908Z,-5.12
2022-12-17T23:19:16.075Z,-5.14
2022-12-17T23:21:43.850Z,-5.12
2022-12-17T23:24:12.911Z,-5.14
2022-12-17T23:26:40.876Z,-5.13
2022-12-17T23:29:13.585Z,-5.15
2022-12-17T23:31:43.909Z,-5.10
2022-12-17T23:34:11.590Z,-5.08
2022-12-17T23:36:39.240Z,-5.06
2022-12-17T23:39:07.270Z,-5.05
2022-12-17T23:41:36.400Z,-5.02
2022-12-17T23:44:04.055Z,-4.99
2022-12-17T23:46:31.866Z,-4.95
2022-12-17T23:49:00.184Z,-4.95
2022-12-17T23:51:28.162Z,-4.95
2022-12-17T23:53:55.933Z,-4.99
2022-12-17T23:56:26.115Z,-5.01
2022-12-17T23:58:56.586Z,-4.99
